createdAt,value
2019-05-19T00:09:54.712Z,6.90
2019-05-19T00:30:04.164Z,8.15
2019-05-19T00:50:13.568Z,8.74
2019-05-19T01:10:22.985Z,7.28
2019-05-19T01:30:32.390Z,13.15
2019-05-19T01:50:41.827Z,11.23
2019-05-19T02:10:51.280Z,6.78
2019-05-19T02:31:00.711Z,8.83
2019-05-19T02:51:13.102Z,8.36
2019-05-19T03:11:12.673Z,6.86
2019-05-19T03:31:22.317Z,11.02
2019-05-19T03:51:32.104Z,7.38
2019-05-19T04:11:40.934Z,6.84
2019-05-19T04:31:50.532Z,7.30
2019-05-19T04:52:06.842Z,8.56
2019-05-19T05:12:01.271Z,7.47
2019-05-19T05:32:10.707Z,5.93
2019-05-19T05:52:37.234Z,6.93
2019-05-19T06:12:21.543Z,7.38
2019-05-19T06:32:31.170Z,6.39
2019-05-19T06:52:48.348Z,6.16
2019-05-19T07:12:47.946Z,5.38
2019-05-19T07:32:57.795Z,4.61
2019-05-19T07:53:07.639Z,5.08
2019-05-19T08:13:17.156Z,5.70
2019-05-19T08:33:26.694Z,5.15
2019-05-19T08:53:38.463Z,5.86
2019-05-19T09:13:38.208Z,5.08
2019-05-19T09:33:50.142Z,6.90
2019-05-19T09:53:49.894Z,5.26
2019-05-19T10:13:59.394Z,5.82
2019-05-19T10:34:11.156Z,5.07
2019-05-19T10:54:12.953Z,4.28
2019-05-19T11:14:12.333Z,4.00
2019-05-19T11:34:21.879Z,4.35
2019-05-19T11:54:31.337Z,4.39
2019-05-19T12:14:40.916Z,3.01
2019-05-19T12:34:51.400Z,3.49
2019-05-19T12:54:50.889Z,3.74
2019-05-19T13:15:00.486Z,3.44
2019-05-19T13:35:10.044Z,4.93
2019-05-19T13:55:19.688Z,3.79
2019-05-19T14:15:29.377Z,3.82
2019-05-19T14:35:41.309Z,2.99
2019-05-19T14:55:40.808Z,3.85
2019-05-19T15:15:52.587Z,4.11
2019-05-19T15:35:52.097Z,4.79
2019-05-19T15:56:01.553Z,5.12
2019-05-19T16:16:11.224Z,4.35
2019-05-19T16:36:22.411Z,4.62
2019-05-19T16:56:22.019Z,3.88
2019-05-19T17:16:31.483Z,5.00
2019-05-19T17:36:41.635Z,5.33
2019-05-19T17:56:41.239Z,5.50
2019-05-19T18:16:50.947Z,5.83
2019-05-19T18:37:05.184Z,6.69
2019-05-19T18:57:05.367Z,6.10
2019-05-19T19:17:05.796Z,7.76
2019-05-19T19:37:05.521Z,6.24
2019-05-19T19:57:14.943Z,6.87
2019-05-19T20:17:24.498Z,6.37
2019-05-19T20:37:34.015Z,6.19
2019-05-19T20:57:43.524Z,8.91
2019-05-19T21:17:52.973Z,8.56
2019-05-19T21:38:02.584Z,9.05
2019-05-19T21:58:12.054Z,9.58
2019-05-19T22:18:21.435Z,7.02
2019-05-19T22:38:30.900Z,7.83
2019-05-19T22:58:41.622Z,6.67
2019-05-19T23:18:49.246Z,7.43
2019-05-19T23:38:58.795Z,7.08
2019-05-19T23:59:10.634Z,6.33
